sensor_id;sensor_type;location;lat;lon;timestamp;temperature;humidity
439;DHT22;206;48.782;9.252;2023-08-12T00:01:54;23.10;45.40
439;DHT22;206;48.782;9.252;2023-08-12T00:04:20;23.10;45.40
439;DHT22;206;48.782;9.252;2023-08-12T00:06:45;23.10;45.40
439;DHT22;206;48.782;9.252;2023-08-12T00:09:11;23.00;45.30
439;DHT22;206;48.782;9.252;2023-08-12T00:11:37;23.00;45.30
439;DHT22;206;48.782;9.252;2023-08-12T00:14:04;23.00;45.30
439;DHT22;206;48.782;9.252;2023-08-12T00:16:30;23.00;45.30
439;DHT22;206;48.782;9.252;2023-08-12T00:18:55;22.90;46.30
439;DHT22;206;48.782;9.252;2023-08-12T00:21:21;22.80;46.60
439;DHT22;206;48.782;9.252;2023-08-12T00:23:46;22.80;47.00
439;DHT22;206;48.782;9.252;2023-08-12T00:26:15;22.90;47.20
439;DHT22;206;48.782;9.252;2023-08-12T00:28:40;22.90;46.50
439;DHT22;206;48.782;9.252;2023-08-12T00:31:06;22.90;46.40
439;DHT22;206;48.782;9.252;2023-08-12T00:33:32;22.90;46.60
439;DHT22;206;48.782;9.252;2023-08-12T00:35:57;22.80;47.00
439;DHT22;206;48.782;9.252;2023-08-12T00:38:23;22.70;47.40
439;DHT22;206;48.782;9.252;2023-08-12T00:40:48;22.80;47.60
439;DHT22;206;48.782;9.252;2023-08-12T00:43:14;22.80;47.70
439;DHT22;206;48.782;9.252;2023-08-12T00:45:40;22.80;47.90
439;DHT22;206;48.782;9.252;2023-08-12T00:48:08;22.80;48.00
439;DHT22;206;48.782;9.252;2023-08-12T00:50:34;22.80;48.00
439;DHT22;206;48.782;9.252;2023-08-12T00:53:01;22.80;48.20
439;DHT22;206;48.782;9.252;2023-08-12T00:55:26;22.70;48.30
439;DHT22;206;48.782;9.252;2023-08-12T00:57:52;22.70;48.30
439;DHT22;206;48.782;9.252;2023-08-12T01:00:18;22.80;48.40
439;DHT22;206;48.782;9.252;2023-08-12T01:02:47;22.70;48.50
439;DHT22;206;48.782;9.252;2023-08-12T01:05:14;22.70;48.50
439;DHT22;206;48.782;9.252;2023-08-12T01:07:41;22.70;48.60
439;DHT22;206;48.782;9.252;2023-08-12T01:10:07;22.70;48.80
439;DHT22;206;48.782;9.252;2023-08-12T01:12:41;22.70;49.00
439;DHT22;206;48.782;9.252;2023-08-12T01:15:23;22.60;49.60
439;DHT22;206;48.782;9.252;2023-08-12T01:17:50;22.50;49.90
439;DHT22;206;48.782;9.252;2023-08-12T01:20:20;22.40;50.90
439;DHT22;206;48.782;9.252;2023-08-12T01:25:39;22.40;51.90
439;DHT22;206;48.782;9.252;2023-08-12T01:28:06;22.30;51.90
439;DHT22;206;48.782;9.252;2023-08-12T01:30:45;22.30;52.10
439;DHT22;206;48.782;9.252;2023-08-12T01:33:21;22.40;51.80
439;DHT22;206;48.782;9.252;2023-08-12T01:35:56;22.50;51.30
439;DHT22;206;48.782;9.252;2023-08-12T01:38:26;22.50;51.10
439;DHT22;206;48.782;9.252;2023-08-12T01:40:54;22.50;51.30
439;DHT22;206;48.782;9.252;2023-08-12T01:43:19;22.50;51.60
439;DHT22;206;48.782;9.252;2023-08-12T01:45:45;22.40;51.40
439;DHT22;206;48.782;9.252;2023-08-12T01:48:11;22.40;52.00
439;DHT22;206;48.782;9.252;2023-08-12T01:50:36;22.30;52.10
439;DHT22;206;48.782;9.252;2023-08-12T01:53:02;22.40;52.10
439;DHT22;206;48.782;9.252;2023-08-12T01:55:28;22.40;51.90
439;DHT22;206;48.782;9.252;2023-08-12T01:57:53;22.40;51.90
439;DHT22;206;48.782;9.252;2023-08-12T02:00:19;22.40;52.00
439;DHT22;206;48.782;9.252;2023-08-12T02:02:44;22.40;52.10
439;DHT22;206;48.782;9.252;2023-08-12T02:05:14;22.40;52.10
439;DHT22;206;48.782;9.252;2023-08-12T02:07:40;22.40;52.10
439;DHT22;206;48.782;9.252;2023-08-12T02:10:06;22.40;52.00
439;DHT22;206;48.782;9.252;2023-08-12T02:12:31;22.40;51.90
439;DHT22;206;48.782;9.252;2023-08-12T02:14:57;22.40;51.90
439;DHT22;206;48.782;9.252;2023-08-12T02:17:23;22.40;51.90
439;DHT22;206;48.782;9.252;2023-08-12T02:19:48;22.50;51.80
439;DHT22;206;48.782;9.252;2023-08-12T02:22:14;22.40;51.80
439;DHT22;206;48.782;9.252;2023-08-12T02:24:39;22.40;52.00
439;DHT22;206;48.782;9.252;2023-08-12T02:27:05;22.40;51.90
439;DHT22;206;48.782;9.252;2023-08-12T02:29:30;22.40;52.00
439;DHT22;206;48.782;9.252;2023-08-12T02:31:56;22.40;51.90
439;DHT22;206;48.782;9.252;2023-08-12T02:34:21;22.40;52.00
439;DHT22;206;48.782;9.252;2023-08-12T02:36:47;22.40;52.00
439;DHT22;206;48.782;9.252;2023-08-12T02:39:13;22.50;51.60
439;DHT22;206;48.782;9.252;2023-08-12T02:41:39;22.50;51.20
439;DHT22;206;48.782;9.252;2023-08-12T02:44:04;22.50;51.10
439;DHT22;206;48.782;9.252;2023-08-12T02:46:30;22.60;50.90
439;DHT22;206;48.782;9.252;2023-08-12T02:48:56;22.60;50.60
439;DHT22;206;48.782;9.252;2023-08-12T02:51:21;22.60;50.70
439;DHT22;206;48.782;9.252;2023-08-12T02:53:47;22.60;50.80
439;DHT22;206;48.782;9.252;2023-08-12T02:56:12;22.70;50.70
439;DHT22;206;48.782;9.252;2023-08-12T02:58:38;22.70;50.60
439;DHT22;206;48.782;9.252;2023-08-12T03:01:04;22.60;50.40
439;DHT22;206;48.782;9.252;2023-08-12T03:03:29;22.60;50.90
439;DHT22;206;48.782;9.252;2023-08-12T03:05:55;22.60;50.70
439;DHT22;206;48.782;9.252;2023-08-12T03:08:20;22.70;50.60
439;DHT22;206;48.782;9.252;2023-08-12T03:10:46;22.70;50.40
439;DHT22;206;48.782;9.252;2023-08-12T03:13:12;22.70;50.10
439;DHT22;206;48.782;9.252;2023-08-12T03:15:40;22.70;50.10
439;DHT22;206;48.782;9.252;2023-08-12T03:18:07;22.70;50.10
439;DHT22;206;48.782;9.252;2023-08-12T03:20:32;22.70;50.10
439;DHT22;206;48.782;9.252;2023-08-12T03:22:58;22.80;50.00
439;DHT22;206;48.782;9.252;2023-08-12T03:25:25;22.80;50.20
439;DHT22;206;48.782;9.252;2023-08-12T03:27:51;22.80;50.20
439;DHT22;206;48.782;9.252;2023-08-12T03:30:16;22.70;50.10
439;DHT22;206;48.782;9.252;2023-08-12T03:32:42;22.70;50.10
439;DHT22;206;48.782;9.252;2023-08-12T03:35:08;22.80;49.90
439;DHT22;206;48.782;9.252;2023-08-12T03:37:34;22.80;50.20
439;DHT22;206;48.782;9.252;2023-08-12T03:40:00;22.70;50.50
439;DHT22;206;48.782;9.252;2023-08-12T03:42:25;22.70;50.80
439;DHT22;206;48.782;9.252;2023-08-12T03:44:51;22.70;50.50
439;DHT22;206;48.782;9.252;2023-08-12T03:47:17;22.70;50.70
439;DHT22;206;48.782;9.252;2023-08-12T03:49:47;22.70;50.50
439;DHT22;206;48.782;9.252;2023-08-12T03:52:12;22.60;51.00
439;DHT22;206;48.782;9.252;2023-08-12T03:54:38;22.60;51.00
439;DHT22;206;48.782;9.252;2023-08-12T03:57:04;22.60;51.20
439;DHT22;206;48.782;9.252;2023-08-12T03:59:30;22.70;51.10
439;DHT22;206;48.782;9.252;2023-08-12T04:01:55;22.70;51.00
439;DHT22;206;48.782;9.252;2023-08-12T04:04:21;22.70;50.90
439;DHT22;206;48.782;9.252;2023-08-12T04:06:46;22.60;51.20
439;DHT22;206;48.782;9.252;2023-08-12T04:09:17;22.60;51.30
439;DHT22;206;48.782;9.252;2023-08-12T04:11:42;22.70;51.20
439;DHT22;206;48.782;9.252;2023-08-12T04:14:08;22.60;51.30
439;DHT22;206;48.782;9.252;2023-08-12T04:16:33;22.60;51.30
439;DHT22;206;48.782;9.252;2023-08-12T04:18:59;22.60;51.30
439;DHT22;206;48.782;9.252;2023-08-12T04:21:24;22.60;51.60
439;DHT22;206;48.782;9.252;2023-08-12T04:23:50;22.50;52.00
439;DHT22;206;48.782;9.252;2023-08-12T04:26:16;22.50;52.00
439;DHT22;206;48.782;9.252;2023-08-12T04:28:41;22.60;51.60
439;DHT22;206;48.782;9.252;2023-08-12T04:31:07;22.70;51.40
439;DHT22;206;48.782;9.252;2023-08-12T04:33:33;22.70;50.50
439;DHT22;206;48.782;9.252;2023-08-12T04:35:59;22.70;50.10
439;DHT22;206;48.782;9.252;2023-08-12T04:38:25;22.70;50.20
439;DHT22;206;48.782;9.252;2023-08-12T04:40:52;22.80;50.20
439;DHT22;206;48.782;9.252;2023-08-12T04:43:18;22.80;50.10
439;DHT22;206;48.782;9.252;2023-08-12T04:45:47;22.80;49.70
439;DHT22;206;48.782;9.252;2023-08-12T04:48:13;22.90;49.70
439;DHT22;206;48.782;9.252;2023-08-12T04:50:39;22.90;49.50
439;DHT22;206;48.782;9.252;2023-08-12T04:53:05;22.90;49.10
439;DHT22;206;48.782;9.252;2023-08-12T04:55:31;22.80;50.30
439;DHT22;206;48.782;9.252;2023-08-12T04:57:57;22.70;50.30
439;DHT22;206;48.782;9.252;2023-08-12T05:00:23;22.80;50.20
439;DHT22;206;48.782;9.252;2023-08-12T05:02:49;22.90;50.30
439;DHT22;206;48.782;9.252;2023-08-12T05:05:15;22.90;50.60
439;DHT22;206;48.782;9.252;2023-08-12T05:07:40;22.80;51.50
439;DHT22;206;48.782;9.252;2023-08-12T05:10:06;22.80;51.40
439;DHT22;206;48.782;9.252;2023-08-12T05:12:32;22.80;51.30
439;DHT22;206;48.782;9.252;2023-08-12T05:14:57;22.80;51.60
439;DHT22;206;48.782;9.252;2023-08-12T05:17:23;22.80;51.70
439;DHT22;206;48.782;9.252;2023-08-12T05:19:49;22.80;51.60
439;DHT22;206;48.782;9.252;2023-08-12T05:22:15;22.80;51.60
439;DHT22;206;48.782;9.252;2023-08-12T05:24:41;22.80;51.70
439;DHT22;206;48.782;9.252;2023-08-12T05:27:06;22.80;52.10
439;DHT22;206;48.782;9.252;2023-08-12T05:29:32;22.90;52.80
439;DHT22;206;48.782;9.252;2023-08-12T05:31:58;22.90;52.60
439;DHT22;206;48.782;9.252;2023-08-12T05:34:23;22.90;51.70
439;DHT22;206;48.782;9.252;2023-08-12T05:36:49;23.00;52.00
439;DHT22;206;48.782;9.252;2023-08-12T05:39:14;23.00;52.00
439;DHT22;206;48.782;9.252;2023-08-12T05:41:41;23.10;51.10
439;DHT22;206;48.782;9.252;2023-08-12T05:44:07;23.00;51.10
439;DHT22;206;48.782;9.252;2023-08-12T05:46:33;23.00;50.80
439;DHT22;206;48.782;9.252;2023-08-12T05:48:58;23.00;51.10
439;DHT22;206;48.782;9.252;2023-08-12T05:51:24;23.10;53.00
439;DHT22;206;48.782;9.252;2023-08-12T05:53:49;23.10;54.60
439;DHT22;206;48.782;9.252;2023-08-12T05:56:15;23.10;54.60
439;DHT22;206;48.782;9.252;2023-08-12T05:58:41;23.00;55.30
439;DHT22;206;48.782;9.252;2023-08-12T06:01:06;23.00;55.30
439;DHT22;206;48.782;9.252;2023-08-12T06:03:32;23.00;55.30
439;DHT22;206;48.782;9.252;2023-08-12T06:05:57;22.90;55.20
439;DHT22;206;48.782;9.252;2023-08-12T06:08:23;22.90;55.30
439;DHT22;206;48.782;9.252;2023-08-12T06:10:49;23.10;55.30
439;DHT22;206;48.782;9.252;2023-08-12T06:13:14;23.10;54.30
439;DHT22;206;48.782;9.252;2023-08-12T06:15:40;23.10;54.20
439;DHT22;206;48.782;9.252;2023-08-12T06:18:05;23.20;53.90
439;DHT22;206;48.782;9.252;2023-08-12T06:20:31;23.20;53.70
439;DHT22;206;48.782;9.252;2023-08-12T06:22:57;23.20;54.60
439;DHT22;206;48.782;9.252;2023-08-12T06:25:22;23.30;55.50
439;DHT22;206;48.782;9.252;2023-08-12T06:27:48;23.40;54.10
439;DHT22;206;48.782;9.252;2023-08-12T06:30:14;23.40;52.80
439;DHT22;206;48.782;9.252;2023-08-12T06:32:39;23.30;52.60
439;DHT22;206;48.782;9.252;2023-08-12T06:35:05;23.40;53.60
439;DHT22;206;48.782;9.252;2023-08-12T06:37:32;23.40;52.90
439;DHT22;206;48.782;9.252;2023-08-12T06:39:57;23.50;51.70
439;DHT22;206;48.782;9.252;2023-08-12T06:42:23;23.50;50.60
439;DHT22;206;48.782;9.252;2023-08-12T06:44:56;23.60;50.20
439;DHT22;206;48.782;9.252;2023-08-12T06:47:22;23.60;50.20
439;DHT22;206;48.782;9.252;2023-08-12T06:49:48;23.60;49.40
439;DHT22;206;48.782;9.252;2023-08-12T06:52:13;23.70;49.80
439;DHT22;206;48.782;9.252;2023-08-12T06:54:39;23.70;48.90
439;DHT22;206;48.782;9.252;2023-08-12T06:57:04;23.80;48.30
439;DHT22;206;48.782;9.252;2023-08-12T06:59:30;23.90;47.70
439;DHT22;206;48.782;9.252;2023-08-12T07:01:56;24.20;46.40
439;DHT22;206;48.782;9.252;2023-08-12T07:04:21;24.40;45.50
439;DHT22;206;48.782;9.252;2023-08-12T07:06:48;24.70;43.20
439;DHT22;206;48.782;9.252;2023-08-12T07:09:13;25.00;41.30
439;DHT22;206;48.782;9.252;2023-08-12T07:11:39;25.20;39.50
439;DHT22;206;48.782;9.252;2023-08-12T07:14:05;25.30;39.10
439;DHT22;206;48.782;9.252;2023-08-12T07:16:31;25.50;38.70
439;DHT22;206;48.782;9.252;2023-08-12T07:18:56;25.60;38.00
439;DHT22;206;48.782;9.252;2023-08-12T07:21:22;25.80;37.40
439;DHT22;206;48.782;9.252;2023-08-12T07:23:47;26.10;35.50
439;DHT22;206;48.782;9.252;2023-08-12T07:26:13;26.40;34.00
439;DHT22;206;48.782;9.252;2023-08-12T07:28:39;26.70;32.80
439;DHT22;206;48.782;9.252;2023-08-12T07:31:04;27.00;31.70
439;DHT22;206;48.782;9.252;2023-08-12T07:33:30;27.20;30.90
439;DHT22;206;48.782;9.252;2023-08-12T07:35:55;27.30;30.20
439;DHT22;206;48.782;9.252;2023-08-12T07:38:21;27.40;29.70
439;DHT22;206;48.782;9.252;2023-08-12T07:40:48;27.70;29.40
439;DHT22;206;48.782;9.252;2023-08-12T07:43:15;27.90;28.70
439;DHT22;206;48.782;9.252;2023-08-12T07:45:41;28.10;28.30
439;DHT22;206;48.782;9.252;2023-08-12T07:48:07;28.40;27.30
439;DHT22;206;48.782;9.252;2023-08-12T07:50:32;28.60;26.40
439;DHT22;206;48.782;9.252;2023-08-12T07:52:58;28.80;25.50
439;DHT22;206;48.782;9.252;2023-08-12T07:55:23;29.00;25.00
439;DHT22;206;48.782;9.252;2023-08-12T07:57:49;29.20;24.70
439;DHT22;206;48.782;9.252;2023-08-12T08:00:15;29.30;23.90
439;DHT22;206;48.782;9.252;2023-08-12T08:02:40;29.30;24.20
439;DHT22;206;48.782;9.252;2023-08-12T08:05:06;29.40;24.00
439;DHT22;206;48.782;9.252;2023-08-12T08:07:32;29.60;23.40
439;DHT22;206;48.782;9.252;2023-08-12T08:09:58;29.70;23.50
439;DHT22;206;48.782;9.252;2023-08-12T08:12:24;29.80;23.00
439;DHT22;206;48.782;9.252;2023-08-12T08:14:49;30.00;22.40
439;DHT22;206;48.782;9.252;2023-08-12T08:17:15;30.10;22.10
439;DHT22;206;48.782;9.252;2023-08-12T08:19:41;29.90;21.80
439;DHT22;206;48.782;9.252;2023-08-12T08:22:06;29.80;22.50
439;DHT22;206;48.782;9.252;2023-08-12T08:24:32;29.70;22.70
439;DHT22;206;48.782;9.252;2023-08-12T08:26:57;29.80;22.70
439;DHT22;206;48.782;9.252;2023-08-12T08:29:23;29.90;22.50
439;DHT22;206;48.782;9.252;2023-08-12T08:31:49;30.10;21.60
439;DHT22;206;48.782;9.252;2023-08-12T08:34:15;30.20;21.50
439;DHT22;206;48.782;9.252;2023-08-12T08:36:40;30.30;21.60
439;DHT22;206;48.782;9.252;2023-08-12T08:39:06;30.20;21.50
439;DHT22;206;48.782;9.252;2023-08-12T08:41:32;30.20;21.60
439;DHT22;206;48.782;9.252;2023-08-12T08:44:02;30.30;21.60
439;DHT22;206;48.782;9.252;2023-08-12T08:46:29;30.30;21.60
439;DHT22;206;48.782;9.252;2023-08-12T08:48:55;30.40;21.60
439;DHT22;206;48.782;9.252;2023-08-12T08:51:25;30.50;21.20
439;DHT22;206;48.782;9.252;2023-08-12T08:53:54;30.60;20.90
439;DHT22;206;48.782;9.252;2023-08-12T08:56:20;30.70;21.00
439;DHT22;206;48.782;9.252;2023-08-12T08:58:46;30.70;21.00
439;DHT22;206;48.782;9.252;2023-08-12T09:01:13;30.50;21.70
439;DHT22;206;48.782;9.252;2023-08-12T09:03:40;30.50;21.40
439;DHT22;206;48.782;9.252;2023-08-12T09:06:06;30.60;21.20
439;DHT22;206;48.782;9.252;2023-08-12T09:08:32;30.60;21.50
439;DHT22;206;48.782;9.252;2023-08-12T09:11:00;30.70;20.80
439;DHT22;206;48.782;9.252;2023-08-12T09:13:26;30.80;20.60
439;DHT22;206;48.782;9.252;2023-08-12T09:15:52;30.80;20.70
439;DHT22;206;48.782;9.252;2023-08-12T09:18:18;30.80;20.70
439;DHT22;206;48.782;9.252;2023-08-12T09:20:44;30.90;20.40
439;DHT22;206;48.782;9.252;2023-08-12T09:23:09;31.10;19.30
439;DHT22;206;48.782;9.252;2023-08-12T09:25:42;31.20;18.90
439;DHT22;206;48.782;9.252;2023-08-12T09:28:09;31.30;18.60
439;DHT22;206;48.782;9.252;2023-08-12T09:30:35;31.40;18.30
439;DHT22;206;48.782;9.252;2023-08-12T09:33:03;31.40;18.40
439;DHT22;206;48.782;9.252;2023-08-12T09:35:36;31.30;18.70
439;DHT22;206;48.782;9.252;2023-08-12T09:38:11;31.40;18.70
439;DHT22;206;48.782;9.252;2023-08-12T09:40:37;31.30;18.30
439;DHT22;206;48.782;9.252;2023-08-12T09:43:03;31.30;18.70
439;DHT22;206;48.782;9.252;2023-08-12T09:45:30;31.40;18.70
439;DHT22;206;48.782;9.252;2023-08-12T09:47:56;31.40;18.40
439;DHT22;206;48.782;9.252;2023-08-12T09:50:24;31.40;18.30
439;DHT22;206;48.782;9.252;2023-08-12T09:52:51;31.50;18.30
439;DHT22;206;48.782;9.252;2023-08-12T09:55:18;31.40;18.10
439;DHT22;206;48.782;9.252;2023-08-12T09:57:44;31.40;18.00
439;DHT22;206;48.782;9.252;2023-08-12T10:00:12;31.40;18.10
439;DHT22;206;48.782;9.252;2023-08-12T10:02:43;31.50;18.10
439;DHT22;206;48.782;9.252;2023-08-12T10:05:12;31.60;17.00
439;DHT22;206;48.782;9.252;2023-08-12T10:07:39;31.70;16.50
439;DHT22;206;48.782;9.252;2023-08-12T10:10:06;31.80;15.30
439;DHT22;206;48.782;9.252;2023-08-12T10:12:33;31.90;15.70
439;DHT22;206;48.782;9.252;2023-08-12T10:15:00;31.80;17.00
439;DHT22;206;48.782;9.252;2023-08-12T10:17:25;31.80;19.20
439;DHT22;206;48.782;9.252;2023-08-12T10:19:58;31.80;21.50
439;DHT22;206;48.782;9.252;2023-08-12T10:22:25;31.80;20.50
439;DHT22;206;48.782;9.252;2023-08-12T10:24:51;31.80;20.90
439;DHT22;206;48.782;9.252;2023-08-12T10:27:17;31.80;18.90
439;DHT22;206;48.782;9.252;2023-08-12T10:29:43;31.80;17.90
439;DHT22;206;48.782;9.252;2023-08-12T10:32:09;31.80;16.80
439;DHT22;206;48.782;9.252;2023-08-12T10:34:35;31.80;18.40
439;DHT22;206;48.782;9.252;2023-08-12T10:37:03;31.80;17.70
439;DHT22;206;48.782;9.252;2023-08-12T10:39:32;31.90;17.30
439;DHT22;206;48.782;9.252;2023-08-12T10:41:58;31.90;18.10
439;DHT22;206;48.782;9.252;2023-08-12T10:44:49;32.10;17.00
439;DHT22;206;48.782;9.252;2023-08-12T10:47:13;32.10;17.20
439;DHT22;206;48.782;9.252;2023-08-12T10:49:42;32.10;16.70
439;DHT22;206;48.782;9.252;2023-08-12T10:52:30;32.10;16.30
439;DHT22;206;48.782;9.252;2023-08-12T10:55:18;32.10;16.40
439;DHT22;206;48.782;9.252;2023-08-12T10:57:44;32.10;16.60
439;DHT22;206;48.782;9.252;2023-08-12T11:00:23;32.10;16.40
439;DHT22;206;48.782;9.252;2023-08-12T11:02:53;32.10;15.80
439;DHT22;206;48.782;9.252;2023-08-12T11:05:19;32.20;15.40
439;DHT22;206;48.782;9.252;2023-08-12T11:07:58;32.20;14.90
439;DHT22;206;48.782;9.252;2023-08-12T11:10:27;32.30;14.80
439;DHT22;206;48.782;9.252;2023-08-12T11:15:32;32.30;14.50
439;DHT22;206;48.782;9.252;2023-08-12T11:17:59;32.30;14.20
439;DHT22;206;48.782;9.252;2023-08-12T11:20:28;32.20;14.80
439;DHT22;206;48.782;9.252;2023-08-12T11:22:55;32.30;14.10
439;DHT22;206;48.782;9.252;2023-08-12T11:25:20;32.20;13.90
439;DHT22;206;48.782;9.252;2023-08-12T11:27:47;32.30;14.50
439;DHT22;206;48.782;9.252;2023-08-12T11:30:15;32.30;13.90
439;DHT22;206;48.782;9.252;2023-08-12T11:32:42;32.40;14.10
439;DHT22;206;48.782;9.252;2023-08-12T11:35:09;32.50;14.70
439;DHT22;206;48.782;9.252;2023-08-12T11:37:37;32.50;14.00
439;DHT22;206;48.782;9.252;2023-08-12T11:40:04;32.60;13.90
439;DHT22;206;48.782;9.252;2023-08-12T11:42:30;32.70;14.10
439;DHT22;206;48.782;9.252;2023-08-12T11:44:56;32.80;13.40
439;DHT22;206;48.782;9.252;2023-08-12T11:47:22;32.90;13.30
439;DHT22;206;48.782;9.252;2023-08-12T11:49:47;33.00;12.90
439;DHT22;206;48.782;9.252;2023-08-12T11:52:14;33.10;12.60
439;DHT22;206;48.782;9.252;2023-08-12T11:54:40;33.20;12.50
439;DHT22;206;48.782;9.252;2023-08-12T11:57:05;33.30;12.70
439;DHT22;206;48.782;9.252;2023-08-12T11:59:31;33.40;13.10
439;DHT22;206;48.782;9.252;2023-08-12T12:01:57;33.40;13.20
439;DHT22;206;48.782;9.252;2023-08-12T12:04:23;33.50;13.10
439;DHT22;206;48.782;9.252;2023-08-12T12:06:49;33.40;13.20
439;DHT22;206;48.782;9.252;2023-08-12T12:09:15;33.40;13.20
439;DHT22;206;48.782;9.252;2023-08-12T12:11:44;33.10;12.50
439;DHT22;206;48.782;9.252;2023-08-12T12:14:10;32.90;13.10
439;DHT22;206;48.782;9.252;2023-08-12T12:16:42;32.30;17.70
439;DHT22;206;48.782;9.252;2023-08-12T12:19:16;31.50;19.00
439;DHT22;206;48.782;9.252;2023-08-12T12:21:44;30.70;21.40
439;DHT22;206;48.782;9.252;2023-08-12T12:24:09;30.00;23.30
439;DHT22;206;48.782;9.252;2023-08-12T12:26:36;29.40;25.50
439;DHT22;206;48.782;9.252;2023-08-12T12:29:05;29.10;29.70
439;DHT22;206;48.782;9.252;2023-08-12T12:31:35;28.90;37.30
439;DHT22;206;48.782;9.252;2023-08-12T12:34:02;28.40;35.20
439;DHT22;206;48.782;9.252;2023-08-12T12:36:33;27.90;38.20
439;DHT22;206;48.782;9.252;2023-08-12T12:38:59;27.50;43.00
439;DHT22;206;48.782;9.252;2023-08-12T12:41:25;27.20;44.60
439;DHT22;206;48.782;9.252;2023-08-12T12:43:50;27.00;45.40
439;DHT22;206;48.782;9.252;2023-08-12T12:46:16;26.90;47.40
439;DHT22;206;48.782;9.252;2023-08-12T12:48:42;26.90;49.90
439;DHT22;206;48.782;9.252;2023-08-12T12:51:08;26.80;50.60
439;DHT22;206;48.782;9.252;2023-08-12T12:53:34;27.00;52.80
439;DHT22;206;48.782;9.252;2023-08-12T12:56:00;26.90;51.00
439;DHT22;206;48.782;9.252;2023-08-12T12:58:32;26.90;47.20
439;DHT22;206;48.782;9.252;2023-08-12T13:00:59;26.80;48.30
439;DHT22;206;48.782;9.252;2023-08-12T13:03:25;26.80;49.30
439;DHT22;206;48.782;9.252;2023-08-12T13:05:51;26.80;52.30
439;DHT22;206;48.782;9.252;2023-08-12T13:08:16;26.70;49.40
439;DHT22;206;48.782;9.252;2023-08-12T13:10:42;26.50;52.60
439;DHT22;206;48.782;9.252;2023-08-12T13:13:08;26.50;53.90
439;DHT22;206;48.782;9.252;2023-08-12T13:15:34;26.50;51.90
439;DHT22;206;48.782;9.252;2023-08-12T13:17:59;26.40;53.40
439;DHT22;206;48.782;9.252;2023-08-12T13:20:25;26.40;54.00
439;DHT22;206;48.782;9.252;2023-08-12T13:22:50;26.50;55.20
439;DHT22;206;48.782;9.252;2023-08-12T13:25:16;26.50;55.60
439;DHT22;206;48.782;9.252;2023-08-12T13:27:42;26.50;56.10
439;DHT22;206;48.782;9.252;2023-08-12T13:30:08;26.50;56.30
439;DHT22;206;48.782;9.252;2023-08-12T13:32:36;26.50;54.60
439;DHT22;206;48.782;9.252;2023-08-12T13:35:02;26.50;54.80
439;DHT22;206;48.782;9.252;2023-08-12T13:37:28;26.50;53.10
439;DHT22;206;48.782;9.252;2023-08-12T13:39:53;26.50;53.50
439;DHT22;206;48.782;9.252;2023-08-12T13:42:19;26.40;54.10
439;DHT22;206;48.782;9.252;2023-08-12T13:44:45;26.50;54.70
439;DHT22;206;48.782;9.252;2023-08-12T13:47:10;26.50;55.10
439;DHT22;206;48.782;9.252;2023-08-12T13:49:36;26.50;55.40
439;DHT22;206;48.782;9.252;2023-08-12T13:52:01;26.50;56.30
439;DHT22;206;48.782;9.252;2023-08-12T13:54:28;26.60;56.90
439;DHT22;206;48.782;9.252;2023-08-12T13:56:53;26.70;58.20
439;DHT22;206;48.782;9.252;2023-08-12T13:59:19;26.80;57.60
439;DHT22;206;48.782;9.252;2023-08-12T14:01:45;27.00;55.30
439;DHT22;206;48.782;9.252;2023-08-12T14:04:10;27.10;53.20
439;DHT22;206;48.782;9.252;2023-08-12T14:06:36;27.30;52.40
439;DHT22;206;48.782;9.252;2023-08-12T14:09:01;27.40;51.80
439;DHT22;206;48.782;9.252;2023-08-12T14:11:27;27.50;48.80
439;DHT22;206;48.782;9.252;2023-08-12T14:13:53;27.50;48.80
439;DHT22;206;48.782;9.252;2023-08-12T14:16:19;27.50;45.30
439;DHT22;206;48.782;9.252;2023-08-12T14:18:44;27.70;45.90
439;DHT22;206;48.782;9.252;2023-08-12T14:21:10;27.80;44.50
439;DHT22;206;48.782;9.252;2023-08-12T14:23:36;27.80;43.60
439;DHT22;206;48.782;9.252;2023-08-12T14:26:01;27.80;43.60
439;DHT22;206;48.782;9.252;2023-08-12T14:28:27;27.80;43.60
439;DHT22;206;48.782;9.252;2023-08-12T14:30:54;27.80;43.00
439;DHT22;206;48.782;9.252;2023-08-12T14:33:19;27.90;44.40
439;DHT22;206;48.782;9.252;2023-08-12T14:35:45;27.90;44.00
439;DHT22;206;48.782;9.252;2023-08-12T14:38:10;28.00;43.20
439;DHT22;206;48.782;9.252;2023-08-12T14:40:38;28.10;42.60
439;DHT22;206;48.782;9.252;2023-08-12T14:43:03;28.20;42.00
439;DHT22;206;48.782;9.252;2023-08-12T14:45:29;28.40;42.20
439;DHT22;206;48.782;9.252;2023-08-12T14:47:54;28.50;40.60
439;DHT22;206;48.782;9.252;2023-08-12T14:50:20;28.50;40.40
439;DHT22;206;48.782;9.252;2023-08-12T14:52:45;28.50;41.00
439;DHT22;206;48.782;9.252;2023-08-12T14:55:11;28.60;39.60
439;DHT22;206;48.782;9.252;2023-08-12T14:57:37;28.70;39.40
439;DHT22;206;48.782;9.252;2023-08-12T15:00:03;28.80;39.00
439;DHT22;206;48.782;9.252;2023-08-12T15:02:29;28.80;38.20
439;DHT22;206;48.782;9.252;2023-08-12T15:04:54;28.90;37.00
439;DHT22;206;48.782;9.252;2023-08-12T15:07:20;28.90;36.90
439;DHT22;206;48.782;9.252;2023-08-12T15:09:47;29.00;36.90
439;DHT22;206;48.782;9.252;2023-08-12T15:12:13;29.00;34.70
439;DHT22;206;48.782;9.252;2023-08-12T15:14:38;29.10;34.80
439;DHT22;206;48.782;9.252;2023-08-12T15:17:04;29.10;35.00
439;DHT22;206;48.782;9.252;2023-08-12T15:19:29;29.20;33.80
439;DHT22;206;48.782;9.252;2023-08-12T15:21:55;29.30;32.20
439;DHT22;206;48.782;9.252;2023-08-12T15:24:21;29.40;31.50
439;DHT22;206;48.782;9.252;2023-08-12T15:26:46;29.30;31.20
439;DHT22;206;48.782;9.252;2023-08-12T15:29:12;29.40;29.90
439;DHT22;206;48.782;9.252;2023-08-12T15:31:37;29.40;29.50
439;DHT22;206;48.782;9.252;2023-08-12T15:34:03;29.50;29.60
439;DHT22;206;48.782;9.252;2023-08-12T15:36:29;29.50;28.70
439;DHT22;206;48.782;9.252;2023-08-12T15:38:54;29.50;29.50
439;DHT22;206;48.782;9.252;2023-08-12T15:41:20;29.40;29.50
439;DHT22;206;48.782;9.252;2023-08-12T15:43:47;29.40;29.50
439;DHT22;206;48.782;9.252;2023-08-12T15:46:13;29.40;29.50
439;DHT22;206;48.782;9.252;2023-08-12T15:48:38;29.30;29.40
439;DHT22;206;48.782;9.252;2023-08-12T15:51:04;29.30;29.40
439;DHT22;206;48.782;9.252;2023-08-12T15:53:30;29.20;29.40
439;DHT22;206;48.782;9.252;2023-08-12T15:55:56;29.10;29.40
439;DHT22;206;48.782;9.252;2023-08-12T15:58:21;29.10;29.40
439;DHT22;206;48.782;9.252;2023-08-12T16:00:47;29.10;29.40
439;DHT22;206;48.782;9.252;2023-08-12T16:03:14;29.10;29.70
439;DHT22;206;48.782;9.252;2023-08-12T16:05:43;29.00;31.30
439;DHT22;206;48.782;9.252;2023-08-12T16:08:08;28.90;30.60
439;DHT22;206;48.782;9.252;2023-08-12T16:10:35;28.80;31.20
439;DHT22;206;48.782;9.252;2023-08-12T16:13:01;28.70;32.30
439;DHT22;206;48.782;9.252;2023-08-12T16:15:27;28.70;32.70
439;DHT22;206;48.782;9.252;2023-08-12T16:17:52;28.70;33.60
439;DHT22;206;48.782;9.252;2023-08-12T16:20:18;28.60;33.90
439;DHT22;206;48.782;9.252;2023-08-12T16:22:44;28.50;35.00
439;DHT22;206;48.782;9.252;2023-08-12T16:25:10;28.60;39.30
439;DHT22;206;48.782;9.252;2023-08-12T16:27:35;28.60;44.30
439;DHT22;206;48.782;9.252;2023-08-12T16:30:01;28.50;45.30
439;DHT22;206;48.782;9.252;2023-08-12T16:32:26;28.40;48.80
439;DHT22;206;48.782;9.252;2023-08-12T16:34:52;28.20;49.30